Date,TemperatureHighF,TemperatureAvgF,TemperatureLowF,DewpointHighF,DewpointAvgF,DewpointLowF,HumidityHigh,HumidityAvg,HumidityLow,PressureMaxIn,PressureMinIn,WindSpeedMaxMPH,WindSpeedAvgMPH,GustSpeedMaxMPH,PrecipitationSumIn
2013-1-1,40.7,37.1,29.2,31.5,28.4,18.1,77,70,61,30.09,29.91,19,4,19,0.02
2013-1-2,29.2,26.1,24.3,18.8,16.4,14.7,69,66,63,30.15,30.05,15,-49,15,0.00
2013-1-3,33.2,28.0,22.4,21.0,17.6,15.2,76,65,50,30.27,30.15,17,-9,17,0.00
2013-1-4,37.4,33.2,28.3,24.1,22.6,20.0,73,65,57,30.19,30.06,24,6,24,0.00
2013-1-5,40.9,33.4,29.2,25.7,22.7,20.0,80,65,51,30.39,30.12,18,3,18,0.00
2013-1-6,46.7,38.2,31.1,33.5,29.9,25.0,95,73,49,30.29,30.05,16,2,16,0.03
2013-1-7,46.0,38.7,30.7,32.2,28.7,25.7,83,68,48,30.47,30.14,17,2,17,0.03
2013-1-8,48.4,36.3,27.3,35.1,29.9,23.9,95,78,58,30.48,30.40,19,3,19,0.00
2013-1-9,49.0,40.0,29.2,40.4,34.7,27.4,95,82,65,30.46,30.22,21,3,21,0.00
2013-1-10,49.2,42.9,38.0,33.7,28.9,27.1,67,58,46,30.59,30.35,18,3,18,0.00
2013-1-11,45.1,40.8,32.8,44.0,35.3,26.7,97,81,65,30.58,30.13,15,2,15,0.52
2013-1-12,50.3,44.6,42.2,47.0,43.4,41.5,98,96,88,30.23,30.14,11,0,11,0.52
2013-1-13,49.6,45.9,42.7,49.3,45.4,41.9,99,98,97,30.20,30.05,10,2,10,0.01
2013-1-14,53.7,50.4,48.9,53.4,50.1,48.4,99,99,98,30.16,29.98,16,1,16,0.03
2013-1-15,37.8,36.5,34.0,35.3,31.8,29.7,94,83,74,30.41,30.26,8,-6,8,0.10
2013-1-16,36.7,34.3,32.2,36.6,33.3,30.9,100,96,93,30.26,29.88,19,2,19,0.38
2013-1-17,41.9,38.6,36.6,36.7,31.3,28.8,100,75,64,30.17,30.00,15,2,15,0.38
2013-1-18,36.6,30.3,26.4,30.4,17.6,10.4,85,60,43,30.56,30.06,24,-21,24,0.00
2013-1-19,50.2,39.3,27.7,31.1,26.6,14.6,78,61,45,30.48,29.99,25,7,25,0.00
2013-1-20,54.4,42.8,30.0,33.2,26.6,11.4,76,55,29,30.11,29.79,33,8,34,0.00
2013-1-21,32.0,27.4,23.2,24.4,14.5,11.3,90,59,47,30.16,29.92,20,2,20,0.00
2013-1-22,25.2,18.0,12.8,12.3,1.8,-2.7,62,49,38,30.32,29.94,29,7,29,0.00
2013-1-23,19.1,13.8,10.2,6.8,1.7,-2.5,81,59,45,30.35,30.24,21,4,21,0.00
2013-1-24,24.6,18.2,11.9,9.3,4.3,-1.0,83,56,34,30.51,30.19,26,3,26,0.10
2013-1-25,22.4,16.9,10.2,15.3,6.4,-0.6,91,65,46,30.52,30.14,18,2,18,0.10
2013-1-26,26.7,19.7,10.2,13.8,11.0,7.6,92,70,50,30.47,30.12,17,3,17,0.04
2013-1-27,33.9,23.7,14.9,18.1,13.5,7.8,78,65,48,30.62,30.47,16,2,16,0.04
2013-1-28,35.9,30.1,22.1,34.8,26.6,16.0,96,87,73,30.57,30.08,16,-3,16,0.16
2013-1-29,49.1,42.7,33.8,45.3,40.6,32.8,97,93,85,30.21,30.07,12,2,12,0.16
2013-1-30,65.8,54.0,42.8,60.0,51.9,42.0,99,93,79,30.10,29.40,27,5,27,0.33
2013-1-31,60.6,41.3,28.1,58.9,28.6,12.1,97,62,42,29.91,29.14,39,11,39,0.35